Time;durP1;ratioP1;P1;durP2;ratioP2;P2;SDS_P1;SDS_P2;PMS_P1;PMS_P2;Temp;Humidity;BMP_temperature;BMP_pressure;BME280_temperature;BME280_humidity;BME280_pressure;Samples;Min_cycle;Max_cycle;Signal;HPM_P1;HPM_P2
2021/04/23 00:01:24;;;;;;;33.72;17.42;;;4.30;82.80;;;;;;5202244;28;20084;-68
2021/04/23 00:04:05;;;;;;;29.73;17.00;;;4.40;83.10;;;;;;5190181;28;20045;-68
2021/04/23 00:06:39;;;;;;;24.52;16.38;;;4.50;83.60;;;;;;5201076;28;20041;-68
2021/04/23 00:09:12;;;;;;;24.70;16.13;;;4.50;83.20;;;;;;5200584;28;20049;-68
2021/04/23 00:11:52;;;;;;;42.60;17.10;;;4.60;82.90;;;;;;5200862;28;20155;-68
2021/04/23 00:14:32;;;;;;;23.50;16.70;;;4.50;83.10;;;;;;5202375;28;20099;-68
2021/04/23 00:17:04;;;;;;;21.67;15.98;;;4.40;82.90;;;;;;5200594;28;20079;-68
2021/04/23 00:19:36;;;;;;;18.70;14.68;;;4.30;82.00;;;;;;5202409;28;20519;-68
2021/04/23 00:22:08;;;;;;;20.17;14.93;;;4.30;81.60;;;;;;5202781;28;20041;-69
2021/04/23 00:24:41;;;;;;;21.55;15.77;;;4.20;81.00;;;;;;5199757;28;20037;-68
2021/04/23 00:27:12;;;;;;;21.48;16.27;;;4.20;81.10;;;;;;5198274;28;20046;-68
2021/04/23 00:29:44;;;;;;;22.45;15.88;;;4.00;81.00;;;;;;5200424;28;20048;-69
2021/04/23 00:32:15;;;;;;;22.00;15.98;;;3.90;81.40;;;;;;5199321;28;20045;-68
2021/04/23 00:34:47;;;;;;;20.38;15.32;;;3.80;81.60;;;;;;5217948;28;20461;-69
2021/04/23 00:37:19;;;;;;;21.58;16.92;;;3.70;81.80;;;;;;5233249;28;20375;-68
2021/04/23 00:39:50;;;;;;;20.38;16.10;;;3.70;82.00;;;;;;5206396;28;20069;-68
2021/04/23 00:42:22;;;;;;;20.08;15.23;;;3.70;81.60;;;;;;5204894;28;20043;-68
2021/04/23 00:44:57;;;;;;;21.65;16.00;;;3.70;82.40;;;;;;5204155;28;20037;-69
2021/04/23 00:47:28;;;;;;;21.20;15.25;;;3.60;81.90;;;;;;5204108;28;20037;-68
2021/04/23 00:50:00;;;;;;;21.17;15.23;;;3.60;81.90;;;;;;5204069;28;20049;-68
2021/04/23 00:52:31;;;;;;;21.48;14.98;;;3.70;81.60;;;;;;5218505;28;20077;-69
2021/04/23 00:55:06;;;;;;;20.15;15.25;;;3.70;81.30;;;;;;5203023;28;20045;-68
2021/04/23 00:57:38;;;;;;;19.38;13.73;;;3.70;81.20;;;;;;5206576;28;20491;-69
2021/04/23 01:00:10;;;;;;;17.77;14.73;;;3.80;81.00;;;;;;5202915;28;20462;-68
2021/04/23 01:02:41;;;;;;;27.70;15.43;;;3.80;81.30;;;;;;5204078;28;20148;-68
2021/04/23 01:05:15;;;;;;;25.02;15.23;;;3.90;81.50;;;;;;5206292;28;20045;-69
2021/04/23 01:07:50;;;;;;;22.30;14.70;;;3.90;81.50;;;;;;5206022;28;20230;-68
2021/04/23 01:10:22;;;;;;;28.20;15.38;;;3.90;81.20;;;;;;5204571;28;20053;-68
2021/04/23 01:12:54;;;;;;;29.77;14.95;;;3.90;82.50;;;;;;5204936;28;20518;-68
2021/04/23 01:15:26;;;;;;;25.42;14.70;;;3.90;82.40;;;;;;5204423;28;20053;-69
2021/04/23 01:17:58;;;;;;;19.90;13.77;;;3.90;82.40;;;;;;5204942;28;20187;-68
2021/04/23 01:20:30;;;;;;;20.88;14.32;;;3.90;82.90;;;;;;5203280;28;20049;-68
2021/04/23 01:23:02;;;;;;;27.85;15.80;;;3.90;83.20;;;;;;5204779;28;20049;-69
2021/04/23 01:25:33;;;;;;;29.17;15.45;;;3.90;84.00;;;;;;5203966;28;20587;-69
2021/04/23 01:28:05;;;;;;;57.10;16.30;;;3.90;84.00;;;;;;5202737;28;20041;-69
2021/04/23 01:30:36;;;;;;;44.90;15.52;;;4.00;84.30;;;;;;5204544;28;20045;-70
2021/04/23 01:33:08;;;;;;;39.38;15.52;;;4.00;83.80;;;;;;5204882;28;20045;-69
2021/04/23 01:35:39;;;;;;;39.70;14.90;;;4.00;83.30;;;;;;5202549;28;20123;-69
2021/04/23 01:38:11;;;;;;;31.90;14.82;;;4.00;83.20;;;;;;5205026;28;20065;-70
2021/04/23 01:40:44;;;;;;;42.95;14.60;;;4.00;82.80;;;;;;5206261;28;20046;-69
2021/04/23 01:43:17;;;;;;;49.38;15.48;;;4.00;82.90;;;;;;5205413;28;20538;-69
2021/04/23 01:45:49;;;;;;;44.13;14.15;;;3.90;84.00;;;;;;5203042;28;20456;-70
2021/04/23 01:48:21;;;;;;;20.70;13.75;;;3.90;83.60;;;;;;5204154;28;20053;-70
2021/04/23 01:50:52;;;;;;;28.85;13.55;;;4.00;83.10;;;;;;5207588;28;20073;-69
2021/04/23 01:53:23;;;;;;;40.13;14.93;;;4.00;82.90;;;;;;5204664;28;20044;-70
2021/04/23 01:55:55;;;;;;;38.78;15.40;;;4.00;82.90;;;;;;5203232;28;20120;-70
2021/04/23 01:58:28;;;;;;;40.10;15.20;;;3.90;83.20;;;;;;5185003;28;20056;-70
2021/04/23 02:00:59;;;;;;;16.85;14.00;;;3.90;82.80;;;;;;5202979;28;20137;-69
2021/04/23 02:03:31;;;;;;;19.55;14.25;;;3.80;82.60;;;;;;5203880;28;20053;-69
2021/04/23 02:06:03;;;;;;;19.65;14.98;;;3.80;80.90;;;;;;5203644;28;20041;-69
2021/04/23 02:08:37;;;;;;;19.83;14.38;;;3.80;80.50;;;;;;5203502;28;20041;-69
2021/04/23 02:11:15;;;;;;;19.85;13.95;;;3.70;80.40;;;;;;5203497;28;20037;-69
2021/04/23 02:13:50;;;;;;;17.02;14.13;;;3.70;80.00;;;;;;5203420;28;20110;-70
2021/04/23 02:16:23;;;;;;;18.45;14.55;;;3.70;80.00;;;;;;5203114;28;20947;-69
2021/04/23 02:18:54;;;;;;;18.60;14.13;;;3.70;80.10;;;;;;5202288;28;20148;-69
2021/04/23 02:21:26;;;;;;;42.83;16.00;;;3.70;80.60;;;;;;5199213;28;20049;-68
2021/04/23 02:23:58;;;;;;;26.55;16.67;;;3.70;82.30;;;;;;5201002;28;20884;-69
2021/04/23 02:26:30;;;;;;;28.65;16.08;;;3.60;82.60;;;;;;5201309;28;20049;-69
2021/04/23 02:29:10;;;;;;;30.80;16.77;;;3.60;82.70;;;;;;5201935;28;20497;-69
2021/04/23 02:31:46;;;;;;;42.85;16.23;;;3.60;82.20;;;;;;5201586;28;20167;-69
2021/04/23 02:34:21;;;;;;;47.63;16.27;;;3.50;82.70;;;;;;5202166;28;20405;-69
2021/04/23 02:36:53;;;;;;;51.25;15.40;;;3.50;83.70;;;;;;5200252;28;20497;-68
2021/04/23 02:39:26;;;;;;;69.70;16.38;;;3.30;84.60;;;;;;5202900;28;20123;-71
2021/04/23 02:41:57;;;;;;;70.55;15.57;;;3.40;84.30;;;;;;5202984;28;20034;-70
2021/04/23 02:44:33;;;;;;;80.85;17.48;;;3.40;83.50;;;;;;5201087;28;20130;-70
2021/04/23 02:47:05;;;;;;;66.57;15.68;;;3.30;84.00;;;;;;5203140;28;20092;-70
2021/04/23 02:49:37;;;;;;;48.22;15.05;;;3.30;83.20;;;;;;5201032;28;20048;-69
2021/04/23 02:52:09;;;;;;;44.08;15.05;;;3.30;83.10;;;;;;5205211;28;20053;-70
2021/04/23 02:54:40;;;;;;;57.40;13.98;;;3.40;82.70;;;;;;5203900;28;20119;-71
2021/04/23 02:57:14;;;;;;;57.50;14.40;;;3.40;81.90;;;;;;5201720;28;20065;-70
2021/04/23 02:59:46;;;;;;;31.20;13.82;;;3.30;81.70;;;;;;5235121;28;20033;-69
2021/04/23 03:02:18;;;;;;;22.58;13.55;;;3.20;81.40;;;;;;5201276;28;20045;-71
2021/04/23 03:04:51;;;;;;;23.40;13.95;;;3.10;81.40;;;;;;5201777;28;20794;-70
2021/04/23 03:07:22;;;;;;;37.10;13.77;;;3.10;81.70;;;;;;5201718;28;20052;-69
2021/04/23 03:09:54;;;;;;;23.50;12.55;;;3.20;81.60;;;;;;5202693;28;20127;-70
2021/04/23 03:12:25;;;;;;;14.98;12.23;;;3.10;81.60;;;;;;5204094;28;20045;-69
2021/04/23 03:14:57;;;;;;;15.48;13.60;;;3.20;81.40;;;;;;5202060;28;20112;-70
2021/04/23 03:17:28;;;;;;;15.75;12.88;;;3.10;81.40;;;;;;5215372;28;20106;-70
2021/04/23 03:20:00;;;;;;;14.02;11.98;;;3.10;81.80;;;;;;5200472;28;20429;-70
2021/04/23 03:22:31;;;;;;;14.35;11.80;;;3.10;82.00;;;;;;5199559;28;20388;-69
2021/04/23 03:25:04;;;;;;;15.85;13.38;;;3.10;81.60;;;;;;5203791;28;20498;-70
2021/04/23 03:27:36;;;;;;;16.10;13.07;;;3.10;82.00;;;;;;5202711;28;20057;-69
2021/04/23 03:30:13;;;;;;;14.95;12.63;;;3.00;82.10;;;;;;5202100;28;20171;-71
2021/04/23 03:32:45;;;;;;;14.63;12.27;;;3.10;82.00;;;;;;5203369;28;20049;-69
2021/04/23 03:35:16;;;;;;;14.55;12.02;;;3.10;81.40;;;;;;5201956;28;20407;-69
2021/04/23 03:37:48;;;;;;;14.65;12.35;;;3.10;81.60;;;;;;5201471;28;20045;-69
2021/04/23 03:40:23;;;;;;;13.95;11.55;;;3.00;81.20;;;;;;5204101;28;20045;-70
2021/04/23 03:42:54;;;;;;;14.30;12.13;;;2.90;81.40;;;;;;5197878;28;20091;-69
2021/04/23 03:45:26;;;;;;;16.50;12.20;;;2.80;82.00;;;;;;5199603;28;20092;-68
2021/04/23 03:47:58;;;;;;;20.33;11.68;;;2.90;81.40;;;;;;5198366;28;20388;-68
2021/04/23 03:50:32;;;;;;;16.15;12.05;;;2.80;81.00;;;;;;5198563;28;20120;-68
2021/04/23 03:53:07;;;;;;;20.85;12.00;;;2.80;80.60;;;;;;5200376;28;20107;-68
2021/04/23 03:55:46;;;;;;;13.85;11.45;;;2.70;81.10;;;;;;5199642;28;20526;-68
2021/04/23 03:58:19;;;;;;;16.30;11.30;;;2.70;80.50;;;;;;5204231;28;20179;-68
2021/04/23 04:01:04;;;;;;;32.17;11.50;;;2.70;80.80;;;;;;5217703;28;20056;-69
2021/04/23 04:03:37;;;;;;;31.25;12.00;;;2.70;80.40;;;;;;5200177;28;20049;-68
2021/04/23 04:06:08;;;;;;;18.75;11.63;;;2.70;80.20;;;;;;5202098;28;20041;-68
2021/04/23 04:08:40;;;;;;;12.63;10.73;;;2.70;79.70;;;;;;5201666;28;20042;-68
2021/04/23 04:11:13;;;;;;;13.68;11.52;;;2.70;79.90;;;;;;5202656;28;20050;-69
2021/04/23 04:13:44;;;;;;;15.10;11.38;;;2.70;79.20;;;;;;5205101;28;20138;-69
2021/04/23 04:16:16;;;;;;;14.00;11.27;;;2.60;80.20;;;;;;5201629;28;20076;-68
2021/04/23 04:18:48;;;;;;;13.60;11.38;;;2.60;79.90;;;;;;5200191;28;20645;-68
2021/04/23 04:21:20;;;;;;;21.33;12.25;;;2.70;79.80;;;;;;5199947;28;20052;-69
2021/04/23 04:23:51;;;;;;;19.20;11.38;;;2.70;79.80;;;;;;5198825;28;20038;-68
2021/04/23 04:26:23;;;;;;;40.55;12.02;;;2.60;79.90;;;;;;5200256;28;20101;-69
2021/04/23 04:28:54;;;;;;;25.75;11.10;;;2.60;79.80;;;;;;5201779;28;20449;-68
2021/04/23 04:31:26;;;;;;;28.55;11.32;;;2.60;80.00;;;;;;5201878;28;20068;-68
2021/04/23 04:33:58;;;;;;;43.17;12.15;;;2.60;79.30;;;;;;5200603;28;20041;-68
2021/04/23 04:36:29;;;;;;;23.33;10.85;;;2.60;78.90;;;;;;5202349;28;20057;-69
2021/04/23 04:39:01;;;;;;;20.80;10.32;;;2.60;78.70;;;;;;5201133;28;20033;-68
2021/04/23 04:41:34;;;;;;;14.18;10.05;;;2.60;78.90;;;;;;5199751;28;20458;-68
2021/04/23 04:44:06;;;;;;;13.25;10.20;;;2.60;78.80;;;;;;5201914;28;20046;-69
2021/04/23 04:46:37;;;;;;;13.02;10.13;;;2.60;78.40;;;;;;5197108;28;20049;-68
2021/04/23 04:49:09;;;;;;;13.02;10.40;;;2.60;78.90;;;;;;5234775;28;20045;-68
2021/04/23 04:51:40;;;;;;;12.52;10.32;;;2.50;78.80;;;;;;5199030;28;20602;-68
2021/04/23 04:54:11;;;;;;;13.63;10.70;;;2.60;78.90;;;;;;5200230;28;20142;-69
2021/04/23 04:56:43;;;;;;;12.65;10.20;;;2.50;78.50;;;;;;5194741;28;20049;-68
2021/04/23 04:59:15;;;;;;;12.88;10.13;;;2.60;78.80;;;;;;5200574;28;20646;-68
2021/04/23 05:01:46;;;;;;;12.27;9.98;;;2.60;78.50;;;;;;5196872;28;20041;-68
2021/04/23 05:04:18;;;;;;;13.18;10.20;;;2.70;78.40;;;;;;5200409;28;20470;-68
2021/04/23 05:06:49;;;;;;;12.73;10.45;;;2.70;78.40;;;;;;5231396;28;20060;-68
2021/04/23 05:09:20;;;;;;;14.27;10.75;;;2.70;78.80;;;;;;5197498;28;20438;-68
2021/04/23 05:11:52;;;;;;;15.88;11.30;;;2.70;78.80;;;;;;5198008;28;20053;-66
2021/04/23 05:14:23;;;;;;;13.88;11.13;;;2.70;78.80;;;;;;5196245;28;20049;-67
2021/04/23 05:16:55;;;;;;;13.43;10.73;;;2.80;78.50;;;;;;5199218;28;20056;-66
2021/04/23 05:19:26;;;;;;;15.23;11.10;;;2.70;78.90;;;;;;5198896;28;20157;-66
2021/04/23 05:21:58;;;;;;;13.90;11.35;;;2.70;79.20;;;;;;5197614;28;20115;-66
2021/04/23 05:24:29;;;;;;;13.25;11.07;;;2.80;78.80;;;;;;5201114;28;20627;-66
2021/04/23 05:27:00;;;;;;;13.63;11.25;;;2.90;78.50;;;;;;5201356;28;20075;-66
2021/04/23 05:29:32;;;;;;;13.98;11.48;;;3.00;78.40;;;;;;5201817;28;20442;-66
2021/04/23 05:32:04;;;;;;;14.82;10.82;;;3.00;78.10;;;;;;5204848;28;20045;-67
2021/04/23 05:34:36;;;;;;;13.38;11.07;;;3.00;78.20;;;;;;5201682;28;20511;-66
2021/04/23 05:37:09;;;;;;;13.05;11.25;;;3.10;78.50;;;;;;5200747;28;20053;-67
2021/04/23 05:39:44;;;;;;;13.32;10.85;;;3.20;78.30;;;;;;5200682;28;20045;-66
2021/04/23 05:42:16;;;;;;;18.20;12.52;;;3.40;78.30;;;;;;5200416;28;20052;-67
2021/04/23 05:44:47;;;;;;;16.08;11.73;;;3.40;78.20;;;;;;5201177;28;20045;-66
2021/04/23 05:47:19;;;;;;;15.48;12.48;;;3.40;79.00;;;;;;5200946;28;20041;-67
2021/04/23 05:49:51;;;;;;;16.27;13.13;;;3.50;80.10;;;;;;5202645;28;20043;-67
2021/04/23 05:52:22;;;;;;;16.60;12.73;;;3.50;80.20;;;;;;5196321;28;20054;-67
2021/04/23 05:54:54;;;;;;;15.55;12.05;;;3.60;80.40;;;;;;5195086;28;20076;-67
2021/04/23 05:57:25;;;;;;;14.88;12.50;;;3.80;80.40;;;;;;5198914;28;20052;-67
2021/04/23 05:59:57;;;;;;;16.55;12.80;;;3.90;80.00;;;;;;5200841;28;20155;-67
2021/04/23 06:02:29;;;;;;;15.10;12.40;;;4.10;79.80;;;;;;5201450;28;20175;-67
2021/04/23 06:05:00;;;;;;;17.20;12.65;;;4.30;79.10;;;;;;5199984;28;20126;-66
2021/04/23 06:07:32;;;;;;;16.27;12.85;;;4.40;79.00;;;;;;5200539;28;20042;-66
2021/04/23 06:10:07;;;;;;;16.40;13.50;;;4.50;79.00;;;;;;5198352;28;20095;-66
2021/04/23 06:12:39;;;;;;;14.88;12.75;;;4.60;79.20;;;;;;5200202;28;20041;-65
2021/04/23 06:15:12;;;;;;;16.45;13.23;;;4.80;79.20;;;;;;5202853;28;20060;-66
2021/04/23 06:17:43;;;;;;;15.85;13.02;;;4.90;78.70;;;;;;5198294;28;20056;-66
2021/04/23 06:20:19;;;;;;;18.95;14.52;;;5.00;78.70;;;;;;5197223;28;20116;-66
2021/04/23 06:22:50;;;;;;;18.73;13.77;;;5.10;79.10;;;;;;5199071;28;20030;-64
2021/04/23 06:25:23;;;;;;;16.98;14.15;;;5.30;79.20;;;;;;5196433;28;20067;-65
2021/04/23 06:27:55;;;;;;;19.48;15.73;;;5.50;79.10;;;;;;5186979;28;20075;-65
2021/04/23 06:30:29;;;;;;;21.73;16.55;;;5.60;79.00;;;;;;5200263;28;20460;-65
2021/04/23 06:33:17;;;;;;;19.27;15.10;;;5.70;79.10;;;;;;5200333;28;20718;-65
2021/04/23 06:35:49;;;;;;;18.83;15.05;;;5.80;78.90;;;;;;5197207;28;20128;-66
2021/04/23 06:38:20;;;;;;;18.77;15.68;;;5.90;79.10;;;;;;5200343;28;20041;-65
2021/04/23 06:40:52;;;;;;;18.80;16.08;;;6.00;79.30;;;;;;5200617;28;20036;-66
2021/04/23 06:43:24;;;;;;;20.33;15.63;;;6.10;79.70;;;;;;5200101;28;20156;-66
2021/04/23 06:45:56;;;;;;;20.08;16.70;;;6.20;79.70;;;;;;5199292;28;20079;-66
2021/04/23 06:48:27;;;;;;;18.98;16.20;;;6.40;80.00;;;;;;5200087;28;20045;-65
2021/04/23 06:51:03;;;;;;;20.17;16.00;;;6.40;79.00;;;;;;5199250;28;20446;-64
2021/04/23 06:53:35;;;;;;;19.65;17.48;;;6.50;79.10;;;;;;5200920;28;20123;-65
2021/04/23 06:56:06;;;;;;;24.02;18.25;;;6.70;79.10;;;;;;5211593;28;20046;-64
2021/04/23 06:58:37;;;;;;;21.33;16.60;;;6.90;79.30;;;;;;5198813;28;20105;-65
2021/04/23 07:01:09;;;;;;;19.60;17.20;;;7.00;79.10;;;;;;5195751;28;20136;-65
2021/04/23 07:03:41;;;;;;;19.75;17.50;;;7.00;79.00;;;;;;5191988;28;20045;-65
2021/04/23 07:06:13;;;;;;;19.75;16.77;;;7.10;78.00;;;;;;5197643;28;20120;-66
2021/04/23 07:08:44;;;;;;;19.65;16.83;;;7.30;78.90;;;;;;5198990;28;20411;-65
2021/04/23 07:11:17;;;;;;;20.77;17.27;;;7.50;78.30;;;;;;5198930;28;20891;-65
2021/04/23 07:13:49;;;;;;;20.52;16.85;;;7.60;77.40;;;;;;5200243;28;20118;-65
2021/04/23 07:16:20;;;;;;;20.58;17.35;;;7.80;77.20;;;;;;5202096;28;20721;-64
2021/04/23 07:18:52;;;;;;;22.13;16.58;;;7.80;76.90;;;;;;5200783;28;20052;-66
2021/04/23 07:21:24;;;;;;;19.33;16.10;;;7.90;76.90;;;;;;5229918;28;20511;-65
2021/04/23 07:23:56;;;;;;;20.27;17.15;;;8.10;75.60;;;;;;5199164;28;20037;-65
2021/04/23 07:26:27;;;;;;;20.25;17.23;;;8.20;75.80;;;;;;5202354;28;20049;-66
2021/04/23 07:28:59;;;;;;;18.98;16.27;;;8.40;74.90;;;;;;5198370;28;20432;-66
2021/04/23 07:31:31;;;;;;;20.83;16.20;;;8.60;74.10;;;;;;5197342;28;20041;-66
2021/04/23 07:34:03;;;;;;;18.77;16.17;;;8.70;73.00;;;;;;5203018;28;20117;-65
2021/04/23 07:36:34;;;;;;;18.52;15.48;;;8.80;71.40;;;;;;5200298;28;20052;-65
2021/04/23 07:39:10;;;;;;;21.08;17.40;;;8.80;71.90;;;;;;5200895;28;20048;-65
2021/04/23 07:41:41;;;;;;;18.40;15.45;;;9.00;70.60;;;;;;5230657;28;20041;-65
2021/04/23 07:44:13;;;;;;;20.23;16.77;;;9.10;69.40;;;;;;5198246;28;20029;-66
2021/04/23 07:46:44;;;;;;;19.70;16.50;;;9.30;68.70;;;;;;5199072;28;20119;-65
2021/04/23 07:49:16;;;;;;;22.48;16.85;;;9.40;69.60;;;;;;5200088;28;20163;-65
2021/04/23 07:51:48;;;;;;;20.55;16.95;;;9.60;68.80;;;;;;5197998;28;20415;-65
2021/04/23 07:54:19;;;;;;;20.10;16.70;;;9.80;68.10;;;;;;5202011;28;20057;-66
2021/04/23 07:56:51;;;;;;;18.20;15.85;;;9.90;66.30;;;;;;5198860;28;20048;-66
2021/04/23 07:59:22;;;;;;;18.15;16.10;;;10.00;64.80;;;;;;5201476;28;20408;-65
2021/04/23 08:01:55;;;;;;;18.75;15.30;;;10.10;66.20;;;;;;5200384;28;20033;-66
2021/04/23 08:04:27;;;;;;;19.10;16.08;;;10.30;63.90;;;;;;5198509;28;20463;-65
2021/04/23 08:06:59;;;;;;;21.15;16.55;;;10.40;62.00;;;;;;5201673;28;20473;-66
2021/04/23 08:09:32;;;;;;;19.80;16.15;;;10.40;62.20;;;;;;5200554;28;20123;-65
2021/04/23 08:12:04;;;;;;;20.83;16.55;;;10.50;64.00;;;;;;5202839;28;20045;-66
2021/04/23 08:14:35;;;;;;;17.80;15.82;;;10.60;64.60;;;;;;5195464;28;20049;-65
2021/04/23 08:17:11;;;;;;;21.08;17.13;;;10.80;64.80;;;;;;5197901;28;20037;-65
2021/04/23 08:19:42;;;;;;;19.42;15.60;;;11.00;64.80;;;;;;5199991;28;21477;-65
2021/04/23 08:22:15;;;;;;;19.13;15.60;;;11.20;65.30;;;;;;5195515;28;20037;-66
2021/04/23 08:24:46;;;;;;;18.38;15.40;;;11.30;64.70;;;;;;5193482;28;20049;-65
2021/04/23 08:27:18;;;;;;;18.67;15.98;;;11.40;63.00;;;;;;5200752;28;20041;-67
2021/04/23 08:29:49;;;;;;;19.27;15.05;;;11.50;62.10;;;;;;5201633;28;20372;-67
2021/04/23 08:32:21;;;;;;;20.23;16.10;;;11.60;60.30;;;;;;5199200;28;20119;-66
2021/04/23 08:34:53;;;;;;;20.20;15.38;;;11.50;60.90;;;;;;5200218;28;20576;-65
2021/04/23 08:37:24;;;;;;;18.45;15.85;;;11.60;59.30;;;;;;5198574;28;20154;-65
2021/04/23 08:39:56;;;;;;;18.88;16.27;;;11.70;58.70;;;;;;5198661;28;20154;-65
2021/04/23 08:42:28;;;;;;;19.90;15.20;;;11.70;58.50;;;;;;5230051;28;20076;-65
2021/04/23 08:45:03;;;;;;;17.98;15.65;;;11.80;60.10;;;;;;5200365;28;20042;-65
2021/04/23 08:47:39;;;;;;;16.77;14.98;;;11.90;57.80;;;;;;5198333;28;20037;-66
2021/04/23 08:50:24;;;;;;;19.52;15.13;;;12.10;58.00;;;;;;5197845;28;20104;-65
2021/04/23 08:52:56;;;;;;;20.83;15.02;;;12.20;57.20;;;;;;5199789;28;20099;-65
2021/04/23 08:55:27;;;;;;;16.77;14.93;;;12.30;55.90;;;;;;5214626;28;20061;-65
2021/04/23 08:58:15;;;;;;;17.08;14.15;;;12.40;55.80;;;;;;5203684;28;20053;-66
2021/04/23 09:00:47;;;;;;;20.67;14.82;;;12.50;54.80;;;;;;5206346;28;20079;-66
2021/04/23 09:03:22;;;;;;;16.45;14.50;;;12.60;53.30;;;;;;5201432;28;20041;-66
2021/04/23 09:06:13;;;;;;;18.15;14.32;;;12.20;54.70;;;;;;5202637;28;20132;-65
2021/04/23 09:09:07;;;;;;;17.95;14.35;;;12.20;55.20;;;;;;5203784;28;20056;-64
2021/04/23 09:11:42;;;;;;;16.33;13.27;;;12.10;54.00;;;;;;5201542;28;20045;-65
2021/04/23 09:14:20;;;;;;;18.65;13.63;;;12.30;52.70;;;;;;5204392;28;20037;-64
2021/04/23 09:17:02;;;;;;;16.77;13.27;;;12.50;52.20;;;;;;5205015;28;20045;-65
2021/04/23 09:19:36;;;;;;;16.83;12.40;;;12.70;50.90;;;;;;5201684;28;20038;-65
2021/04/23 09:22:30;;;;;;;16.25;12.20;;;12.90;52.00;;;;;;5201504;28;20029;-65
2021/04/23 09:25:12;;;;;;;15.45;11.48;;;13.00;49.10;;;;;;5206146;28;20411;-65
2021/04/23 09:27:50;;;;;;;13.35;11.35;;;13.10;46.80;;;;;;5201779;28;20076;-66
2021/04/23 09:30:25;;;;;;;11.35;10.02;;;13.20;46.20;;;;;;5192489;28;20592;-67
2021/04/23 09:32:57;;;;;;;13.82;11.48;;;13.20;42.20;;;;;;5200467;28;20064;-67
2021/04/23 09:35:34;;;;;;;13.55;11.23;;;13.30;47.30;;;;;;5200622;28;20045;-65
2021/04/23 09:38:17;;;;;;;12.63;10.68;;;13.50;42.10;;;;;;5204885;28;20037;-66
2021/04/23 09:40:48;;;;;;;13.70;11.35;;;13.60;45.30;;;;;;5202838;28;20134;-65
2021/04/23 09:43:37;;;;;;;14.63;11.18;;;13.70;42.90;;;;;;5201762;28;20080;-65
2021/04/23 09:46:08;;;;;;;14.30;11.15;;;13.50;46.60;;;;;;5203424;28;20510;-65
2021/04/23 09:48:40;;;;;;;12.57;10.45;;;13.70;45.50;;;;;;5201814;28;20042;-65
2021/04/23 09:51:19;;;;;;;12.68;10.85;;;13.90;46.20;;;;;;5201578;28;20041;-65
2021/04/23 09:53:50;;;;;;;12.98;10.18;;;14.00;41.60;;;;;;5206014;28;20061;-65
2021/04/23 09:56:34;;;;;;;12.50;10.27;;;14.10;43.20;;;;;;5201210;28;20092;-66
2021/04/23 09:59:24;;;;;;;11.52;10.32;;;14.20;41.20;;;;;;5202827;28;20042;-65
2021/04/23 10:01:57;;;;;;;11.43;9.85;;;14.10;43.40;;;;;;5201067;28;20180;-65
2021/04/23 10:04:30;;;;;;;12.55;9.25;;;14.20;40.30;;;;;;5233636;28;20029;-66
2021/04/23 10:07:15;;;;;;;12.32;10.27;;;14.30;39.70;;;;;;5199467;28;20045;-66
2021/04/23 10:10:05;;;;;;;11.27;9.57;;;14.40;39.30;;;;;;5202632;28;20045;-66
2021/04/23 10:12:49;;;;;;;12.38;9.48;;;14.40;36.90;;;;;;5201892;28;20053;-65
2021/04/23 10:15:30;;;;;;;24.00;17.98;;;14.40;36.90;;;;;;5201786;28;20106;-65
2021/04/23 10:18:06;;;;;;;12.13;9.77;;;14.50;39.60;;;;;;5199325;28;20056;-65
2021/04/23 10:20:43;;;;;;;14.05;10.88;;;14.60;38.90;;;;;;5228712;28;20050;-65
2021/04/23 10:23:21;;;;;;;13.60;9.52;;;14.70;38.70;;;;;;5198963;28;20062;-65
2021/04/23 10:25:54;;;;;;;11.15;9.70;;;14.70;37.30;;;;;;5202238;28;20519;-65
2021/04/23 10:28:26;;;;;;;11.52;9.75;;;14.80;38.70;;;;;;5234370;28;20064;-65
2021/04/23 10:30:58;;;;;;;10.40;8.77;;;14.90;37.50;;;;;;5201334;28;20049;-66
2021/04/23 10:33:31;;;;;;;11.05;9.68;;;14.90;37.90;;;;;;5200968;28;20040;-67
2021/04/23 10:36:02;;;;;;;10.23;8.75;;;14.90;37.40;;;;;;5201810;28;20037;-66
2021/04/23 10:38:37;;;;;;;11.70;9.60;;;15.00;38.20;;;;;;5198782;28;20455;-66
2021/04/23 10:41:10;;;;;;;9.85;8.35;;;15.00;36.80;;;;;;5199082;28;20053;-64
2021/04/23 10:43:54;;;;;;;11.30;8.48;;;15.10;37.30;;;;;;5202362;28;20049;-65
2021/04/23 10:46:28;;;;;;;12.25;8.30;;;15.30;36.10;;;;;;5199747;28;20128;-64
2021/04/23 10:49:06;;;;;;;13.52;8.80;;;15.30;35.50;;;;;;5198790;28;20050;-64
2021/04/23 10:51:37;;;;;;;10.55;8.10;;;15.40;35.00;;;;;;5192222;28;20407;-65
2021/04/23 10:54:15;;;;;;;11.65;8.40;;;15.50;35.20;;;;;;5203113;28;20145;-65
2021/04/23 10:56:52;;;;;;;10.45;8.20;;;15.70;36.70;;;;;;5199555;28;20042;-65
2021/04/23 10:59:23;;;;;;;10.93;8.55;;;15.70;36.40;;;;;;5234901;28;20115;-65
2021/04/23 11:02:14;;;;;;;12.10;8.57;;;15.80;33.40;;;;;;5200001;28;21197;-65
2021/04/23 11:04:54;;;;;;;11.10;9.13;;;15.80;33.90;;;;;;5199770;28;20041;-65
2021/04/23 11:07:26;;;;;;;11.52;7.93;;;16.00;33.70;;;;;;5198407;28;20564;-66
2021/04/23 11:10:00;;;;;;;10.38;8.07;;;15.80;30.40;;;;;;5231961;28;20048;-65
2021/04/23 11:12:31;;;;;;;12.77;8.60;;;15.70;34.00;;;;;;5197723;28;20574;-65
2021/04/23 11:15:17;;;;;;;9.88;7.50;;;15.90;33.40;;;;;;5203330;28;20041;-65
2021/04/23 11:17:48;;;;;;;9.63;8.38;;;16.00;31.50;;;;;;5198786;28;20053;-66
2021/04/23 11:20:26;;;;;;;10.40;8.18;;;16.20;33.30;;;;;;5196421;28;20072;-65
2021/04/23 11:22:59;;;;;;;11.63;8.27;;;16.40;32.20;;;;;;5198439;28;20117;-65
2021/04/23 11:25:30;;;;;;;9.02;7.80;;;16.50;32.40;;;;;;5201195;28;20045;-66
2021/04/23 11:28:02;;;;;;;13.13;8.45;;;16.50;31.10;;;;;;5202722;28;20118;-66
2021/04/23 11:30:55;;;;;;;12.23;8.35;;;16.50;29.60;;;;;;5199649;28;20418;-66
2021/04/23 11:33:49;;;;;;;9.02;7.68;;;16.60;30.10;;;;;;5200480;28;20103;-66
2021/04/23 11:36:31;;;;;;;9.63;7.78;;;16.70;30.10;;;;;;5200782;28;20045;-66
2021/04/23 11:39:13;;;;;;;10.13;8.45;;;16.80;30.80;;;;;;5200332;28;20095;-67
2021/04/23 11:42:09;;;;;;;8.43;7.50;;;17.00;29.60;;;;;;5196547;28;20099;-66
2021/04/23 11:44:42;;;;;;;9.02;8.05;;;17.00;30.80;;;;;;5198501;28;20060;-65
2021/04/23 11:47:17;;;;;;;11.13;8.57;;;17.10;29.50;;;;;;5201959;28;20049;-66
2021/04/23 11:50:18;;;;;;;10.02;7.97;;;17.30;28.90;;;;;;5201245;28;20041;-67
2021/04/23 11:52:56;;;;;;;10.75;8.70;;;17.50;28.90;;;;;;5198473;28;20124;-66
2021/04/23 11:55:30;;;;;;;10.88;8.77;;;17.60;28.30;;;;;;5229560;28;20478;-66
2021/04/23 11:58:13;;;;;;;10.70;8.40;;;17.70;28.00;;;;;;5200060;28;21559;-65
2021/04/23 12:00:56;;;;;;;10.00;8.98;;;17.70;28.10;;;;;;5197870;28;20479;-65
2021/04/23 12:03:28;;;;;;;10.65;8.30;;;17.70;28.90;;;;;;5199048;28;20159;-66
2021/04/23 12:05:59;;;;;;;10.02;8.00;;;17.90;28.10;;;;;;5197170;28;20053;-65
2021/04/23 12:08:32;;;;;;;11.65;8.35;;;18.10;28.30;;;;;;5197247;28;20045;-64
2021/04/23 12:11:08;;;;;;;12.35;8.23;;;18.30;27.00;;;;;;5198349;28;20055;-64
2021/04/23 12:13:40;;;;;;;8.45;7.60;;;18.30;27.10;;;;;;5200571;28;20494;-65
2021/04/23 12:16:14;;;;;;;11.50;8.18;;;18.30;26.40;;;;;;5200569;28;20060;-64
2021/04/23 12:18:50;;;;;;;9.30;7.63;;;18.40;27.60;;;;;;5231324;28;20033;-66
2021/04/23 12:21:22;;;;;;;8.85;7.90;;;18.50;27.60;;;;;;5200751;28;20041;-66
2021/04/23 12:23:55;;;;;;;9.60;8.20;;;18.60;27.20;;;;;;5203063;28;20041;-66
2021/04/23 12:26:26;;;;;;;9.80;7.78;;;18.60;26.40;;;;;;5200112;28;20637;-65
2021/04/23 12:28:58;;;;;;;9.15;8.25;;;18.70;25.70;;;;;;5201440;28;20042;-65
2021/04/23 12:31:30;;;;;;;12.50;8.32;;;18.80;25.80;;;;;;5205602;28;20064;-65
2021/04/23 12:34:10;;;;;;;9.50;8.40;;;18.70;26.60;;;;;;5220505;28;20075;-63
2021/04/23 12:36:44;;;;;;;8.65;7.78;;;18.70;24.50;;;;;;5204786;28;20052;-64
2021/04/23 12:39:22;;;;;;;9.77;8.57;;;18.70;26.90;;;;;;5234471;28;20053;-65
2021/04/23 12:41:54;;;;;;;9.18;8.25;;;18.80;24.50;;;;;;5204450;28;20069;-65
2021/04/23 12:44:31;;;;;;;10.00;8.80;;;19.00;24.70;;;;;;5204841;28;20111;-64
2021/04/23 12:47:09;;;;;;;9.35;7.80;;;19.00;25.00;;;;;;5203332;28;20163;-68
2021/04/23 12:49:42;;;;;;;9.75;8.43;;;19.20;24.20;;;;;;5201766;28;20053;-66
2021/04/23 12:52:17;;;;;;;10.68;8.15;;;19.10;23.10;;;;;;5198101;28;20053;-65
2021/04/23 12:54:51;;;;;;;9.00;8.10;;;19.20;23.30;;;;;;5231921;28;20117;-66
2021/04/23 12:57:26;;;;;;;9.55;8.55;;;19.20;23.60;;;;;;5201899;28;20194;-66
2021/04/23 13:00:08;;;;;;;9.15;8.25;;;19.30;23.70;;;;;;5197432;28;20127;-65
2021/04/23 13:02:42;;;;;;;10.27;8.25;;;19.10;23.00;;;;;;5200119;28;20107;-67
2021/04/23 13:05:15;;;;;;;9.00;8.10;;;19.30;23.60;;;;;;5199425;28;20052;-66
2021/04/23 13:07:47;;;;;;;11.27;9.82;;;19.30;24.70;;;;;;5198974;28;20041;-67
2021/04/23 13:10:26;;;;;;;10.55;9.45;;;19.20;23.90;;;;;;5197222;28;20517;-66
2021/04/23 13:13:15;;;;;;;;;;;;;;;;;;;;;